Terminal Aerodrome Forecast
Issued by NWS Blacksburg, VA

Home | Current Version | Previous Version | Text Only | Print | Product List | Glossary On
Versions: 1 2 3 4 5 6 7 8 9 10 11 12 13 14
000
FTUS41 KRNK 180540
TAFLYH
TAF
KLYH 180540Z 1806/1906 05005KT P6SM BKN250
     FM181400 05007KT P6SM OVC250
     FM190000 04008KT P6SM BKN100 OVC200=

USA.gov is the U.S. government's official web portal to all federal, state and local government web resources and services.